createdAt,value
2023-04-16T00:00:29.834Z,31.7
2023-04-16T00:06:24.356Z,31.6
2023-04-16T00:12:15.066Z,31.6
2023-04-16T00:17:52.198Z,31.6
2023-04-16T00:23:43.721Z,31.6
2023-04-16T00:29:34.313Z,31.6
2023-04-16T00:35:11.126Z,31.5
2023-04-16T00:40:47.262Z,31.5
2023-04-16T00:46:38.906Z,31.4
2023-04-16T00:52:16.270Z,31.4
2023-04-16T00:57:52.307Z,31.4
2023-04-16T01:03:29.971Z,31.4
2023-04-16T01:08:51.495Z,31.4
2023-04-16T01:14:43.679Z,31.4
2023-04-16T01:20:20.098Z,31.3
2023-04-16T01:25:56.364Z,31.3
2023-04-16T01:31:32.659Z,31.3
2023-04-16T01:37:08.665Z,31.3
2023-04-16T01:43:00.116Z,31.3
2023-04-16T01:48:36.870Z,31.2
2023-04-16T01:54:27.922Z,31.2
2023-04-16T02:00:04.548Z,31.2
2023-04-16T02:05:57.738Z,31.1
2023-04-16T02:11:33.338Z,31.1
2023-04-16T02:17:10.079Z,31.1
2023-04-16T02:23:01.481Z,31.1
2023-04-16T02:28:51.962Z,31.1
2023-04-16T02:34:43.952Z,31.1
2023-04-16T02:40:35.435Z,31
2023-04-16T02:46:27.197Z,31
2023-04-16T02:52:19.093Z,31
2023-04-16T02:58:09.889Z,30.9
2023-04-16T03:03:46.908Z,30.9
2023-04-16T03:09:38.461Z,30.9
2023-04-16T03:15:30.056Z,30.9
2023-04-16T03:21:06.710Z,30.8
2023-04-16T03:26:58.506Z,30.8
2023-04-16T03:32:50.819Z,30.8
2023-04-16T03:38:41.966Z,30.8
2023-04-16T03:44:18.069Z,30.8
2023-04-16T03:49:54.692Z,30.8
2023-04-16T03:55:30.199Z,30.8
2023-04-16T04:01:22.150Z,30.7
2023-04-16T04:07:16.343Z,30.7
2023-04-16T04:12:52.527Z,30.7
2023-04-16T04:18:44.717Z,30.6
2023-04-16T04:24:46.599Z,30.6
2023-04-16T04:30:06.612Z,30.6
2023-04-16T04:35:59.050Z,30.6
2023-04-16T04:41:50.552Z,30.6
2023-04-16T04:47:44.063Z,30.6
2023-04-16T04:53:35.404Z,30.5
2023-04-16T04:59:16.475Z,30.5
2023-04-16T05:05:08.596Z,30.5
2023-04-16T05:11:00.507Z,30.5
2023-04-16T05:16:37.273Z,30.4
2023-04-16T05:22:13.966Z,30.4
2023-04-16T05:28:05.445Z,30.4
2023-04-16T05:33:58.937Z,30.4
2023-04-16T05:39:49.594Z,30.4
2023-04-16T05:45:44.385Z,30.4
2023-04-16T05:51:20.727Z,30.3
2023-04-16T05:57:11.718Z,30.3
2023-04-16T06:03:04.147Z,30.3
2023-04-16T06:08:41.812Z,30.3
2023-04-16T06:14:19.806Z,30.3
2023-04-16T06:19:56.264Z,30.2
2023-04-16T06:25:50.337Z,30.2
2023-04-16T06:31:52.592Z,30.2
2023-04-16T06:37:28.922Z,30.2
2023-04-16T06:43:21.240Z,30.1
2023-04-16T06:48:56.909Z,30.1
2023-04-16T06:54:33.714Z,30.1
2023-04-16T07:00:10.021Z,30.1
2023-04-16T07:06:03.385Z,38.5
2023-04-16T07:11:55.156Z,35.1
2023-04-16T07:17:47.363Z,34.1
2023-04-16T07:23:39.165Z,33.5
2023-04-16T07:29:30.137Z,32.5
2023-04-16T07:40:44.446Z,39.5
2023-04-16T07:46:46.024Z,39.3
2023-04-16T07:52:40.759Z,39.5
2023-04-16T08:04:09.485Z,43
2023-04-16T08:10:02.870Z,43.4
2023-04-16T08:15:54.235Z,43.8
2023-04-16T08:21:46.594Z,45.7
2023-04-16T08:27:51.203Z,48.9
2023-04-16T08:33:43.531Z,50.3
2023-04-16T08:39:35.074Z,47.9
2023-04-16T08:45:27.224Z,45.8
2023-04-16T08:51:03.732Z,45.1
2023-04-16T08:56:55.699Z,45.4
2023-04-16T09:02:48.766Z,48.1
2023-04-16T09:08:41.066Z,48.9
2023-04-16T09:14:32.589Z,48.2
2023-04-16T09:20:25.225Z,45.6
2023-04-16T09:26:01.496Z,44.8
2023-04-16T09:31:55.032Z,44.8
2023-04-16T09:37:47.388Z,45.9
2023-04-16T09:43:24.639Z,46
2023-04-16T09:49:05.391Z,45.8
2023-04-16T09:54:58.785Z,46.3
2023-04-16T10:00:50.709Z,48.6
2023-04-16T10:07:05.110Z,49.5
2023-04-16T10:12:56.790Z,48.5
2023-04-16T10:18:47.668Z,47.8
2023-04-16T10:24:39.954Z,46.5
2023-04-16T10:30:32.428Z,45.9
2023-04-16T10:36:21.376Z,45.8
2023-04-16T10:42:14.909Z,46.1
2023-04-16T10:48:09.347Z,46.5
2023-04-16T10:54:08.931Z,47.1
2023-04-16T11:00:02.461Z,47.5
2023-04-16T11:05:40.763Z,47.3
2023-04-16T11:11:40.392Z,47.6
2023-04-16T11:17:33.012Z,48.1
2023-04-16T11:23:43.556Z,51.8
2023-04-16T11:29:34.001Z,51.1
2023-04-16T11:35:25.547Z,48.8
2023-04-16T11:41:16.671Z,47.9
2023-04-16T11:47:18.406Z,47.3
2023-04-16T11:53:13.074Z,46.4
2023-04-16T11:58:51.147Z,45.9
2023-04-16T12:05:11.148Z,45.5
2023-04-16T12:11:03.340Z,45.2
2023-04-16T12:16:54.970Z,45.3
2023-04-16T12:22:30.705Z,46.2
2023-04-16T12:28:09.259Z,47
2023-04-16T12:33:48.448Z,48.3
2023-04-16T12:39:49.872Z,47.9
2023-04-16T12:45:41.067Z,47.1
2023-04-16T12:51:33.116Z,46.2
2023-04-16T12:57:25.951Z,44.8
2023-04-16T13:03:19.126Z,43.9
2023-04-16T13:09:12.919Z,43.3
2023-04-16T13:15:04.722Z,42.6
2023-04-16T13:20:57.544Z,42.1
2023-04-16T13:26:49.724Z,41.5
2023-04-16T13:32:44.643Z,39.5
2023-04-16T13:38:39.063Z,38.2
2023-04-16T13:44:15.917Z,37.3
2023-04-16T13:49:52.810Z,36.6
2023-04-16T13:55:30.304Z,36
2023-04-16T14:01:06.588Z,35.6
2023-04-16T14:06:43.711Z,35.4
2023-04-16T14:11:33.476Z,35.3
2023-04-16T14:16:55.049Z,35.1
2023-04-16T14:22:46.341Z,34.9
2023-04-16T14:28:37.438Z,34.8
2023-04-16T14:34:30.021Z,34.8
2023-04-16T14:40:06.638Z,34.6
2023-04-16T14:45:57.902Z,34.6
2023-04-16T18:58:43.579Z,31.1
2023-04-16T19:04:20.561Z,31.1
2023-04-16T19:10:11.210Z,31.1
2023-04-16T19:16:05.597Z,31.1
2023-04-16T19:27:18.773Z,31
2023-04-16T19:33:12.263Z,31
2023-04-16T19:39:03.805Z,30.9
2023-04-16T19:44:54.125Z,30.9
2023-04-16T19:50:46.308Z,30.7
2023-04-16T19:56:37.578Z,30.6
2023-04-16T20:02:28.111Z,30.6
2023-04-16T20:08:20.823Z,30.6
2023-04-16T20:14:12.080Z,30.6
2023-04-16T20:20:08.981Z,30.6
2023-04-16T20:26:01.073Z,30.6
2023-04-16T20:31:52.298Z,30.6
2023-04-16T20:37:45.050Z,30.6
2023-04-16T20:43:40.260Z,30.5
2023-04-16T20:49:17.077Z,30.5
2023-04-16T20:55:08.119Z,30.4
2023-04-16T21:01:01.429Z,30.4
2023-04-16T21:06:55.057Z,30.4
2023-04-16T21:12:45.237Z,30.4
2023-04-16T21:18:06.644Z,30.4
2023-04-16T21:23:27.186Z,30.3
2023-04-16T21:29:19.176Z,30.3
2023-04-16T21:34:55.776Z,30.3
2023-04-16T21:40:32.072Z,30.3
2023-04-16T21:46:08.351Z,30.3
2023-04-16T21:51:45.831Z,30.2
2023-04-16T22:03:15.138Z,30.2
2023-04-16T22:09:23.169Z,30.1
2023-04-16T22:15:32.461Z,30.1
2023-04-16T22:21:23.850Z,30.1
2023-04-16T22:27:15.878Z,30.1
2023-04-16T22:33:07.377Z,30
2023-04-16T22:38:57.699Z,30
2023-04-16T22:44:50.120Z,30
2023-04-16T22:50:41.979Z,30
2023-04-16T22:56:32.163Z,29.9
2023-04-16T23:02:09.484Z,29.9
2023-04-16T23:08:01.919Z,29.9
2023-04-16T23:13:37.294Z,29.9
2023-04-16T23:19:14.395Z,29.9
2023-04-16T23:24:19.921Z,29.8
2023-04-16T23:29:55.565Z,29.8
2023-04-16T23:35:47.810Z,29.8
2023-04-16T23:41:39.753Z,29.8
2023-04-16T23:58:28.990Z,29.7
